Portada
METAR-TAF:

METAR-TAF

Aeropuertos :

Orange, Francia

latitud: 44-08N, longitud: 004-50E, altitud: 60 m

Observación

El informe se hizo hace 16 minutos, a las 08:00 UTC
Viento calma
Temperatura 11°C
Humedad 87%
Presión 1026 hPa
Visibilidad 10 km o más
sin nubes por debajo de 1500 m y sin presencia de cumulonimbus.

METAR: LFMO 280800Z AUTO 00000KT CAVOK 11/09 Q1026

Hora: 10:16 (08:16 UTC)

Pronóstico

El informe se hizo hace 6 horas y 16 minutos, a las 02:00 UTC
Pronóstico válido del 28 a las 03 UTC al 29 a las 03 UTC
Viento 2 kt con dirección variable
Visibilidad 10 km o más
sin nubes por debajo de 1500 m y sin presencia de cumulonimbus.
Temporalmente
del 28 a las 03 UTC al 28 a las 08 UTC
Visibilidad: 4000 m
neblina
Probabilidad 40% :
Temporalmente
del 28 a las 03 UTC al 28 a las 08 UTC
Visibilidad: 0400 m
niebla

TAF: LFMO 280200Z 2803/2903 VRB02KT CAVOK TEMPO 2803/2808 4000 BR PROB40 TEMPO 2803/2808 0400 FG VV///

Observaciones y pronósticos meteorológicos de más de 4000 aeropuertos (mensajes METAR y TAF).

Los puntos amarillos y rojos representan las estaciones disponibles.

Ponga el ratón en el punto deseado para ver el nombre de la estación.

Haga clic para ver las observaciones y los pronósticos meteorológicos.

Para cambiar el mapa : haga clic en los botones verdes con una cruz de color negro para hacer un zoom, en el botón verde con un guión para alejar o en las flechas verdes para mapas adyacentes.


METAR-TAF: